Main page
METAR-TAF:

METAR-TAF

Airports :

Yaoundé Nsimalen International Airport

Yaoundé, Cameroon

latitude: 03-50N, longitude: 011-31E, elevation: 751 m

Current weather observation

The report was made 33 minutes ago, at 11:00 UTC
Temperature 27°C
Humidity 70%
Pressure 1019 hPa
Visibility: 8000 m
Broken clouds at a height of 1600 ft

METAR: FKYS 151100Z /////KT 8000 BKN016 27/21 Q1019 NOSIG

Time: 12:33 (11:33 UTC)

Forecast

The report was made 6 hours and 33 minutes ago, at 05:00 UTC
Forecast valid from 15 at 06 UTC to 16 at 06 UTC
Wind 3 kt from variable directions
Visibility 10 km or more
Broken clouds at a height of 600 ft
Becoming
from 15 at 07 UTC to 15 at 08 UTC
Broken clouds at a height of 1600 ft
Becoming
from 15 at 20 UTC to 15 at 22 UTC
Broken clouds at a height of 600 ft

TAF: FKYS 150500Z 1506/1606 VRB03KT 9999 BKN006 BECMG 1507/1508 BKN016 BECMG 1520/1522 BKN006

Weather observations and forecasts of more than 4000 airports (METAR and TAF reports).

The available stations are represented by yellow and red dots on the map.

Hover mouse over dot to see the name of the station.

Then click to see weather observations and forecasts.

To change the map : click on the green buttons with a black cross to zoom in, on the green button with a dash to zoom out, or on the green arrows for adjacent maps.


METAR-TAF: